Portada
METAR-TAF:

METAR-TAF

Aeroports :

Hermosillo, Mèxic

latitud: 29-04N, longitud: 110-57W, altitud: 211 m

Observació

L'informe es va fer fa 55 minuts, a les 16:40 UTC
Vent 4 kt del Sud/Sud-Est
Temperatura 34°C
Humitat 11%
Pressió 1014 hPa
Visibilitat: 16.1 km
Cel clar

METAR: MMHO 171640Z 16004KT 10SM SKC 34/00 A2994 RMK HZY

Hora: 10:35 (17:35 UTC)

Pronòstic

L'informe es va fer fa 13 hores i 37 minuts, a les 03:58 UTC
Pronòstic vàlid del 17 a les 06 UTC al 18 a les 06 UTC
Vent 5 kt del Oest/Sud-Oest
Visibilitat: 10 km
Núvols disperses a una alçada de 25000 ft
A partir de les 17 a les 1800 UTC
Vent 10 kt del Oest/Sud-Oest
Visibilitat: 10 km
Núvols disperses a una alçada de 25000 ft
A partir de les 18 a les 0200 UTC
Vent 5 kt del Oest/Sud-Oest
Visibilitat: 10 km
Cel clar

TAF: MMHO 170358Z 1706/1806 24005KT P6SM SCT250 FM171800 24010KT P6SM SCT250 FM180200 24005KT P6SM SKC

Observacions i pronòstics meteorològics de més de 4000 aeroports (METAR i TAF).

Les estacions disponibles són els punts grocs i vermells al mapa.

Posi el ratolí al punt desitjat per veure el nom de l'estació.

Feu clic per veure les observacions i els pronòstics meteorològics.

Per canviar el mapa: feu clic els botons verds amb una creu de color negre per apropar; al botó verd amb un guió per allunyar la imatge; o en les fletxes verdes per a mapes adjacents.


METAR-TAF: